CheckWX is a tool to help pilots better visualize weather data.  It is not intended as a substitute for an official pre-flight weather briefing.

06:29:42 UTC

EPWR TAF
Copernicus Wrocław Airport
Wrocław, Poland
TAF EPWR 190530Z 1906/2006 27008KT CAVOK PROB30 TEMPO 1908/1915 30015G25KT SHRA BKN025CB

Sep-19@
06:00 UTC

Sep-19 @ 06:00 UTC

Sep-20@
06:00 UTC

Sep-20 @ 06:00 UTC

TAF EPWR 190530Z 1906/2006 27008KT CAVOK
Wind
  • 270° at 8 KTS
Conditions
No significant weather
Cloud Levels
  • No significant clouds

Sep-19@
08:00 UTC

Sep-19 @ 08:00 UTC

Sep-19@
15:00 UTC

Sep-19 @ 15:00 UTC

PROB30 TEMPO 1908/1915 30015G25KT SHRA BKN025CB

Temporary - 30% Likelihood

Temporary - 30% Likelihood during this time.

Wind
  • 300° at 15 KTS
  • {Gusting to 25 KTS
Conditions
Rain
Cloud Levels
  • Broken at 2,500' AGL